This is the latest recevied weather packets stored in our database for station/object KO4LFZ. If no packets are shown the sender has not sent any weather packets the latest 10 day(s).
| Time | Temp. | Humidity | Pressure | Rain* | Wind** | Luminosity | Snow |
|---|---|---|---|---|---|---|---|
| 1778088171 | 13.33° C | 82% | 1014.9 hPa | 0 mm | - | 344 W/m² | - |
| 1778087869 | 13.33° C | 82% | 1015 hPa | 0 mm | - | 262 W/m² | - |
| 1778087566 | 13.33° C | 82% | 1015.2 hPa | 0 mm | - | 222 W/m² | - |
| 1778087264 | 13.33° C | 81% | 1015.1 hPa | 0 mm | - | 262 W/m² | - |
| 1778086960 | 13.33° C | 83% | 1015.2 hPa | 0 mm | - | 216 W/m² | - |
| 1778086659 | 13.33° C | 82% | 1015 hPa | 0 mm | - | 303 W/m² | - |
| 1778086355 | 13.33° C | 84% | 1014.8 hPa | 0 mm | - | 337 W/m² | - |
| 1778086052 | 13.33° C | 85% | 1014.9 hPa | 0 mm | - | 352 W/m² | - |
| 1778085749 | 13.33° C | 84% | 1014.5 hPa | 0 mm | - | 472 W/m² | - |
| 1778085446 | 12.78° C | 83% | 1014.7 hPa | 0 mm | - | 455 W/m² | - |
| 1778085141 | 12.78° C | 85% | 1014.6 hPa | 0 mm | - | 476 W/m² | - |
| 1778084836 | 12.22° C | 86% | 1014.7 hPa | 0 mm | - | 294 W/m² | - |
| 1778084250 | 12.22° C | 86% | 1014.9 hPa | 0 mm | - | 301 W/m² | - |
| 1778083946 | 12.22° C | 86% | 1014.9 hPa | 0 mm | - | 301 W/m² | - |
| 1778083639 | 12.22° C | 88% | 1014.7 hPa | 0 mm | - | 237 W/m² | - |
| 1778083335 | 12.22° C | 86% | 1015.1 hPa | 0 mm | - | 227 W/m² | - |
| 1778083034 | 11.67° C | 86% | 1014.8 hPa | 0 mm | - | 242 W/m² | - |
| 1778082730 | 11.67° C | 87% | 1014.7 hPa | 0 mm | - | 304 W/m² | - |
| 1778081592 | 11.67° C | 88% | 1015.2 hPa | 0 mm | - | 229 W/m² | - |
| 1778081289 | 11.67° C | 90% | 1015.2 hPa | 0 mm | - | 232 W/m² | - |
| 1778080986 | 11.67° C | 88% | 1015.1 hPa | 0 mm | - | 226 W/m² | - |
| 1778080685 | 11.67° C | 90% | 1015.2 hPa | 0 mm | - | 252 W/m² | - |
| 1778080381 | 11.11° C | 90% | 1015.1 hPa | 0 mm | - | 200 W/m² | - |
| 1778080078 | 11.11° C | 89% | 1015 hPa | 0 mm | - | 185 W/m² | - |
| 1778079775 | 11.11° C | 89% | 1014.8 hPa | 0 mm | - | 202 W/m² | - |
* Rain latest hour (hover to see other rain measurements)
** Current wind speed in m/s (hover to see current wind gust speed)